createdAt,value
2017-12-10T00:01:00.776Z,0.81
2017-12-10T00:03:28.267Z,0.83
2017-12-10T00:05:55.744Z,0.85
2017-12-10T00:08:23.199Z,0.87
2017-12-10T00:10:50.832Z,0.86
2017-12-10T00:13:18.281Z,0.85
2017-12-10T00:15:45.752Z,0.77
2017-12-10T00:18:13.311Z,0.78
2017-12-10T00:20:40.756Z,0.81
2017-12-10T00:23:08.204Z,0.80
2017-12-10T00:25:35.660Z,0.79
2017-12-10T00:28:03.123Z,0.75
2017-12-10T00:30:30.577Z,0.77
2017-12-10T00:32:58.028Z,0.79
2017-12-10T00:35:25.484Z,0.80
2017-12-10T00:37:52.941Z,0.74
2017-12-10T00:40:20.447Z,0.72
2017-12-10T00:42:47.916Z,0.80
2017-12-10T00:45:15.494Z,0.82
2017-12-10T00:47:42.974Z,0.68
2017-12-10T00:50:10.431Z,0.72
2017-12-10T00:52:37.889Z,0.75
2017-12-10T00:55:05.380Z,0.79
2017-12-10T00:57:32.834Z,0.75
2017-12-10T01:00:00.298Z,0.79
2017-12-10T01:02:27.763Z,0.79
2017-12-10T01:04:55.226Z,0.74
2017-12-10T01:07:22.675Z,0.72
2017-12-10T01:09:50.132Z,0.67
2017-12-10T01:12:17.620Z,0.72
2017-12-10T01:14:45.071Z,0.74
2017-12-10T01:17:12.541Z,0.68
2017-12-10T01:19:39.998Z,0.66
2017-12-10T01:22:07.458Z,0.61
2017-12-10T01:24:34.900Z,0.61
2017-12-10T01:27:02.368Z,0.52
2017-12-10T01:29:29.808Z,0.54
2017-12-10T01:31:57.248Z,0.42
2017-12-10T01:34:24.728Z,0.35
2017-12-10T01:36:52.248Z,0.46
2017-12-10T01:39:19.712Z,0.44
2017-12-10T01:41:47.172Z,0.43
2017-12-10T01:44:14.614Z,0.38
2017-12-10T01:46:42.071Z,0.36
2017-12-10T01:49:09.563Z,0.41
2017-12-10T01:51:36.994Z,0.40
2017-12-10T01:54:04.494Z,0.35
2017-12-10T01:56:32.554Z,0.43
2017-12-10T01:59:00.064Z,0.37
2017-12-10T02:01:27.548Z,0.28
2017-12-10T02:03:54.998Z,0.25
2017-12-10T02:06:22.589Z,0.26
2017-12-10T02:11:23.931Z,0.30
2017-12-10T02:13:51.420Z,0.12
2017-12-10T02:16:18.862Z,0.17
2017-12-10T02:18:46.367Z,0.10
2017-12-10T02:21:13.924Z,0.14
2017-12-10T02:23:41.379Z,0.17
2017-12-10T02:26:08.824Z,0.15
2017-12-10T02:28:36.333Z,0.14
2017-12-10T02:31:03.776Z,0.13
2017-12-10T02:33:31.239Z,0.21
2017-12-10T02:35:58.689Z,0.28
2017-12-10T02:38:26.136Z,0.07
2017-12-10T02:40:53.638Z,0.16
2017-12-10T02:43:21.114Z,0.19
2017-12-10T02:45:48.572Z,0.19
2017-12-10T02:48:16.058Z,0.33
2017-12-10T02:50:43.533Z,0.29
2017-12-10T02:53:11.005Z,0.25
2017-12-10T02:55:38.447Z,0.19
2017-12-10T02:58:05.939Z,0.14
2017-12-10T03:00:33.387Z,0.11
2017-12-10T03:03:01.084Z,0.09
2017-12-10T03:05:28.546Z,0.10
2017-12-10T03:07:55.993Z,0.19
2017-12-10T03:10:23.619Z,0.09
2017-12-10T03:12:51.075Z,0.24
2017-12-10T03:15:18.555Z,0.23
2017-12-10T03:17:46.043Z,0.36
2017-12-10T03:20:13.605Z,0.29
2017-12-10T03:22:41.044Z,0.30
2017-12-10T03:25:08.511Z,0.35
2017-12-10T03:27:35.976Z,0.29
2017-12-10T03:30:03.530Z,0.22
2017-12-10T03:32:31.268Z,0.21
2017-12-10T03:34:58.745Z,0.32
2017-12-10T03:37:26.229Z,0.23
2017-12-10T03:39:53.689Z,0.32
2017-12-10T03:42:21.128Z,0.28
2017-12-10T03:44:48.574Z,0.32
2017-12-10T03:47:16.029Z,0.23
2017-12-10T03:49:43.467Z,0.19
2017-12-10T03:52:10.981Z,0.25
2017-12-10T03:54:38.427Z,0.05
2017-12-10T03:57:05.858Z,0.00
2017-12-10T03:59:33.400Z,0.08
2017-12-10T04:02:00.847Z,0.12
2017-12-10T04:04:28.313Z,0.09
2017-12-10T04:06:55.746Z,0.00
2017-12-10T04:09:23.197Z,0.07
2017-12-10T04:11:50.722Z,-0.10
2017-12-10T04:14:18.243Z,-0.12
2017-12-10T04:16:45.703Z,-0.11
2017-12-10T04:19:13.169Z,-0.23
2017-12-10T04:21:40.626Z,-0.33
2017-12-10T04:24:08.127Z,-0.31
2017-12-10T04:26:35.575Z,-0.22
2017-12-10T04:29:03.246Z,-0.17
2017-12-10T04:31:30.703Z,-0.18
2017-12-10T04:33:58.160Z,-0.30
2017-12-10T04:36:26.107Z,-0.38
2017-12-10T04:38:53.609Z,-0.43
2017-12-10T04:41:21.091Z,-0.38
2017-12-10T04:43:48.546Z,-0.40
2017-12-10T04:46:16.330Z,-0.39
2017-12-10T04:48:43.865Z,-0.46
2017-12-10T04:51:11.346Z,-0.54
2017-12-10T04:53:38.800Z,-0.48
2017-12-10T04:56:06.264Z,-0.55
2017-12-10T04:58:33.759Z,-0.62
2017-12-10T05:01:01.220Z,-0.62
2017-12-10T05:03:28.671Z,-0.76
2017-12-10T05:05:56.189Z,-0.77
2017-12-10T05:08:23.795Z,-0.88
2017-12-10T05:10:51.251Z,-0.97
2017-12-10T05:13:18.722Z,-0.99
2017-12-10T05:15:46.180Z,-0.95
2017-12-10T05:18:13.653Z,-1.01
2017-12-10T05:20:41.147Z,-0.96
2017-12-10T05:23:08.595Z,-1.12
2017-12-10T05:25:36.075Z,-1.31
2017-12-10T05:28:03.540Z,-1.40
2017-12-10T05:30:31.068Z,-1.45
2017-12-10T05:32:58.547Z,-1.41
2017-12-10T05:35:26.037Z,-1.50
2017-12-10T05:37:53.490Z,-1.57
2017-12-10T05:40:20.980Z,-1.64
2017-12-10T05:42:48.465Z,-1.74
2017-12-10T05:45:16.176Z,-1.83
2017-12-10T05:47:43.678Z,-1.90
2017-12-10T05:50:11.136Z,-1.95
2017-12-10T05:52:38.615Z,-2.02
2017-12-10T05:55:06.138Z,-2.03
2017-12-10T05:57:33.595Z,-2.04
2017-12-10T06:00:01.040Z,-2.00
2017-12-10T06:02:28.504Z,-1.95
2017-12-10T06:04:55.968Z,-1.98
2017-12-10T06:07:23.444Z,-2.02
2017-12-10T06:09:50.906Z,-2.06
2017-12-10T06:12:18.356Z,-1.95
2017-12-10T06:14:45.829Z,-1.99
2017-12-10T06:17:13.294Z,-2.05
2017-12-10T06:19:40.731Z,-2.09
2017-12-10T06:22:08.180Z,-2.08
2017-12-10T06:24:35.626Z,-2.12
2017-12-10T06:27:03.090Z,-2.13
2017-12-10T06:29:30.573Z,-2.17
2017-12-10T06:31:58.099Z,-2.23
2017-12-10T06:34:25.559Z,-2.18
2017-12-10T06:36:53.014Z,-2.01
2017-12-10T06:39:20.455Z,-1.89
2017-12-10T06:41:47.938Z,-1.86
2017-12-10T06:44:15.453Z,-1.88
2017-12-10T06:46:42.924Z,-1.94
2017-12-10T06:49:10.455Z,-1.99
2017-12-10T06:51:38.025Z,-1.97
2017-12-10T06:54:05.473Z,-1.95
2017-12-10T06:56:33.106Z,-1.90
2017-12-10T06:59:00.802Z,-1.84
2017-12-10T07:01:28.313Z,-1.88
2017-12-10T07:03:55.776Z,-1.97
2017-12-10T07:06:23.255Z,-2.04
2017-12-10T07:08:50.711Z,-2.08
2017-12-10T07:11:18.154Z,-2.09
2017-12-10T07:13:45.617Z,-2.11
2017-12-10T07:16:13.249Z,-2.08
2017-12-10T07:18:40.904Z,-2.03
2017-12-10T07:21:08.394Z,-1.98
2017-12-10T07:23:35.836Z,-1.98
2017-12-10T07:26:03.322Z,-1.94
2017-12-10T07:28:30.962Z,-1.91
2017-12-10T07:30:58.464Z,-1.88
2017-12-10T07:33:25.915Z,-1.87
2017-12-10T07:35:53.379Z,-1.88
2017-12-10T07:38:20.883Z,-1.85
2017-12-10T07:40:48.362Z,-1.81
2017-12-10T07:43:15.828Z,-1.76
2017-12-10T07:45:43.437Z,-1.69
2017-12-10T07:48:10.925Z,-1.61
2017-12-10T07:50:38.373Z,-1.44
2017-12-10T07:53:05.829Z,-1.25
2017-12-10T07:55:33.312Z,-1.16
2017-12-10T07:58:00.814Z,-1.03
2017-12-10T08:00:28.409Z,-1.00
2017-12-10T08:02:55.968Z,-0.94
2017-12-10T08:05:23.431Z,-0.95
2017-12-10T08:07:50.883Z,-0.89
2017-12-10T08:10:18.369Z,-0.82
2017-12-10T08:12:45.876Z,-0.79
2017-12-10T08:15:13.678Z,-0.76
2017-12-10T08:17:41.191Z,-0.78
2017-12-10T08:20:08.696Z,-0.79
2017-12-10T08:22:36.174Z,-0.73
2017-12-10T08:25:03.656Z,-0.67
2017-12-10T08:27:31.104Z,-0.65
2017-12-10T08:29:58.558Z,-0.49
2017-12-10T08:32:26.051Z,-0.39
2017-12-10T08:34:53.519Z,-0.28
2017-12-10T08:37:20.989Z,-0.25
2017-12-10T08:39:48.452Z,-0.10
2017-12-10T08:42:15.928Z,-0.09
2017-12-10T08:44:43.400Z,-0.06
2017-12-10T08:47:10.957Z,-0.03
2017-12-10T08:49:38.440Z,0.01
2017-12-10T08:52:05.903Z,0.15
2017-12-10T08:54:33.384Z,0.15
2017-12-10T08:57:00.847Z,0.20
2017-12-10T08:59:28.313Z,0.30
2017-12-10T09:01:55.776Z,0.32
2017-12-10T09:04:23.225Z,0.36
2017-12-10T09:06:50.681Z,0.37
2017-12-10T09:09:18.171Z,0.36
2017-12-10T09:11:45.630Z,0.39
2017-12-10T09:14:13.293Z,0.41
2017-12-10T09:16:40.765Z,0.53
2017-12-10T09:19:08.234Z,0.56
2017-12-10T09:21:35.719Z,0.69
2017-12-10T09:24:03.201Z,0.64
2017-12-10T09:26:30.899Z,0.64
2017-12-10T09:28:58.375Z,0.69
2017-12-10T09:31:25.871Z,0.75
2017-12-10T09:33:53.371Z,0.76
2017-12-10T09:36:20.828Z,0.70
2017-12-10T09:38:48.286Z,0.72
2017-12-10T09:41:15.796Z,0.86
2017-12-10T09:43:43.265Z,0.84
2017-12-10T09:46:10.726Z,0.82
2017-12-10T09:48:38.230Z,0.91
2017-12-10T09:51:05.755Z,1.01
2017-12-10T09:53:33.280Z,0.96
2017-12-10T09:56:00.731Z,1.02
2017-12-10T09:58:28.214Z,1.14
2017-12-10T10:00:55.658Z,1.17
2017-12-10T10:03:23.135Z,1.22
2017-12-10T10:05:50.631Z,1.27
2017-12-10T10:08:18.084Z,1.35
2017-12-10T10:10:45.548Z,1.48
2017-12-10T10:13:13.022Z,1.57
2017-12-10T10:15:40.492Z,1.67
2017-12-10T10:18:07.993Z,1.75
2017-12-10T10:20:35.509Z,1.89
2017-12-10T10:23:02.983Z,2.01
2017-12-10T10:25:30.468Z,2.08
2017-12-10T10:27:57.920Z,2.01
2017-12-10T10:30:25.579Z,2.07
2017-12-10T10:32:53.032Z,2.20
2017-12-10T10:35:20.507Z,2.15
2017-12-10T10:37:48.006Z,2.19
2017-12-10T10:40:15.746Z,2.25
2017-12-10T10:42:43.439Z,2.24
2017-12-10T10:45:10.907Z,2.25
2017-12-10T10:47:38.349Z,2.32
2017-12-10T10:50:05.828Z,2.41
2017-12-10T10:52:33.556Z,2.46
2017-12-10T10:55:01.055Z,2.47
2017-12-10T10:57:28.495Z,2.53
2017-12-10T10:59:55.962Z,2.63
2017-12-10T11:02:23.425Z,2.77
2017-12-10T11:04:50.859Z,2.87
2017-12-10T11:07:18.339Z,2.81
2017-12-10T11:09:45.817Z,2.87
2017-12-10T11:12:13.299Z,2.92
2017-12-10T11:14:40.755Z,2.86
2017-12-10T11:17:08.206Z,2.89
2017-12-10T11:19:35.709Z,2.99
2017-12-10T11:22:03.155Z,3.03
2017-12-10T11:24:30.611Z,3.26
2017-12-10T11:26:58.155Z,3.38
2017-12-10T11:29:26.030Z,3.37
2017-12-10T11:31:53.835Z,3.36
2017-12-10T11:34:21.336Z,3.48
2017-12-10T11:36:48.805Z,3.44
2017-12-10T11:39:16.635Z,3.41
2017-12-10T11:41:44.120Z,3.34
2017-12-10T11:44:11.662Z,3.23
2017-12-10T11:46:39.139Z,3.17
2017-12-10T11:49:06.674Z,3.15
2017-12-10T11:51:34.139Z,3.18
2017-12-10T11:54:01.625Z,3.30
2017-12-10T11:56:29.265Z,3.33
2017-12-10T11:58:56.704Z,3.42
2017-12-10T12:01:24.178Z,3.43
2017-12-10T12:03:51.679Z,3.45
2017-12-10T12:06:19.181Z,3.57
2017-12-10T12:08:46.640Z,3.61
2017-12-10T12:11:14.091Z,3.70
2017-12-10T12:13:41.578Z,3.72
2017-12-10T12:16:09.039Z,3.90
2017-12-10T12:18:36.510Z,3.90
2017-12-10T12:21:04.009Z,3.96
2017-12-10T12:23:31.457Z,3.97
2017-12-10T12:25:58.896Z,3.90
2017-12-10T12:28:26.350Z,4.07
2017-12-10T12:30:53.797Z,4.12
2017-12-10T12:33:21.316Z,4.22
2017-12-10T12:35:48.838Z,4.41
2017-12-10T12:38:16.435Z,4.43
2017-12-10T12:40:43.899Z,4.54
2017-12-10T12:43:11.355Z,4.63
2017-12-10T12:45:38.830Z,4.68
2017-12-10T12:48:06.283Z,4.83
2017-12-10T12:50:35.223Z,4.70
2017-12-10T12:53:02.751Z,4.71
2017-12-10T12:55:30.210Z,4.57
2017-12-10T12:57:57.687Z,4.51
2017-12-10T13:00:25.239Z,4.48
2017-12-10T13:02:52.692Z,4.27
2017-12-10T13:05:20.179Z,4.25
2017-12-10T13:07:47.647Z,4.32
2017-12-10T13:10:15.328Z,4.39
2017-12-10T13:12:43.019Z,4.32
2017-12-10T13:15:10.476Z,4.29
2017-12-10T13:17:37.975Z,4.18
2017-12-10T13:20:05.485Z,4.02
2017-12-10T13:22:33.225Z,4.07
2017-12-10T13:25:00.695Z,3.87
2017-12-10T13:27:28.184Z,3.84
2017-12-10T13:29:55.610Z,3.88
2017-12-10T13:32:23.292Z,3.85
2017-12-10T13:34:50.902Z,3.82
2017-12-10T13:37:18.347Z,3.75
2017-12-10T13:39:45.815Z,3.86
2017-12-10T13:42:13.255Z,3.86
2017-12-10T13:44:40.702Z,3.78
2017-12-10T13:47:08.171Z,3.76
2017-12-10T13:49:35.628Z,3.64
2017-12-10T13:52:03.085Z,3.63
2017-12-10T13:54:30.579Z,3.48
2017-12-10T13:56:58.058Z,3.33
2017-12-10T13:59:25.488Z,3.32
2017-12-10T14:01:53.004Z,3.19
2017-12-10T14:04:20.452Z,3.25
2017-12-10T14:06:47.943Z,3.12
2017-12-10T14:09:15.712Z,3.03
2017-12-10T14:11:43.166Z,2.94
2017-12-10T14:14:10.653Z,2.96
2017-12-10T14:16:38.227Z,2.99
2017-12-10T14:19:05.667Z,2.99
2017-12-10T14:21:33.137Z,2.92
2017-12-10T14:24:00.611Z,2.86
2017-12-10T14:26:28.052Z,2.80
2017-12-10T14:28:55.519Z,2.72
2017-12-10T14:31:23.444Z,2.78
2017-12-10T14:33:50.984Z,2.68
2017-12-10T14:36:18.460Z,2.78
2017-12-10T14:38:45.948Z,2.64
2017-12-10T14:41:13.410Z,2.66
2017-12-10T14:43:40.869Z,2.65
2017-12-10T14:46:08.358Z,2.65
2017-12-10T14:48:35.807Z,2.66
2017-12-10T14:51:03.310Z,2.60
2017-12-10T14:53:30.755Z,2.66
2017-12-10T14:55:58.248Z,2.63
2017-12-10T14:58:25.714Z,2.63
2017-12-10T15:00:53.199Z,2.69
2017-12-10T15:03:20.976Z,2.70
2017-12-10T15:05:48.464Z,2.69
2017-12-10T15:08:16.348Z,2.66
2017-12-10T15:10:43.837Z,2.62
2017-12-10T15:13:11.318Z,2.58
2017-12-10T15:15:38.854Z,2.59
2017-12-10T15:18:06.316Z,2.60
2017-12-10T15:20:34.181Z,2.60
2017-12-10T15:23:01.696Z,2.59
2017-12-10T15:25:29.178Z,2.64
2017-12-10T15:27:56.619Z,2.64
2017-12-10T15:30:24.228Z,2.67
2017-12-10T15:32:51.734Z,2.75
2017-12-10T15:35:19.189Z,2.76
2017-12-10T15:37:47.531Z,2.66
2017-12-10T15:40:15.322Z,2.62
2017-12-10T15:42:42.902Z,2.67
2017-12-10T15:45:10.378Z,2.80
2017-12-10T15:47:37.852Z,2.85
2017-12-10T15:50:05.312Z,2.92
2017-12-10T15:52:32.859Z,2.88
2017-12-10T15:55:00.365Z,2.91
2017-12-10T15:57:27.815Z,3.02
2017-12-10T15:59:55.282Z,3.03
2017-12-10T16:02:22.759Z,3.03
2017-12-10T16:04:50.241Z,3.10
2017-12-10T16:07:17.720Z,3.14
2017-12-10T16:09:45.256Z,3.17
2017-12-10T16:12:12.739Z,3.18
2017-12-10T16:14:40.223Z,3.14
2017-12-10T16:17:07.761Z,3.14
2017-12-10T16:19:35.235Z,3.16
2017-12-10T16:22:02.720Z,3.13
2017-12-10T16:24:30.296Z,3.17
2017-12-10T16:26:57.771Z,3.20
2017-12-10T16:29:25.267Z,3.17
2017-12-10T16:31:52.741Z,3.25
2017-12-10T16:34:20.551Z,3.15
2017-12-10T16:36:48.287Z,3.20
2017-12-10T16:39:16.380Z,3.23
2017-12-10T16:41:43.903Z,3.22
2017-12-10T16:44:12.403Z,3.18
2017-12-10T16:46:40.098Z,3.26
2017-12-10T16:49:07.675Z,3.25
2017-12-10T16:51:35.151Z,3.18
2017-12-10T16:54:02.702Z,3.22
2017-12-10T16:56:31.342Z,3.24
2017-12-10T16:59:00.060Z,3.25
2017-12-10T17:01:31.376Z,3.26
2017-12-10T17:03:58.934Z,3.28
2017-12-10T17:06:26.810Z,3.32
2017-12-10T17:08:54.296Z,3.42
2017-12-10T17:11:21.771Z,3.57
2017-12-10T17:13:49.269Z,3.60
2017-12-10T17:16:18.144Z,3.54
2017-12-10T17:18:46.014Z,3.57
2017-12-10T17:21:13.697Z,3.65
2017-12-10T17:23:42.148Z,3.65
2017-12-10T17:26:09.668Z,3.68
2017-12-10T17:28:37.219Z,3.71
2017-12-10T17:31:04.658Z,3.81
2017-12-10T17:33:32.159Z,3.82
2017-12-10T17:35:59.603Z,3.76
2017-12-10T17:38:27.058Z,3.81
2017-12-10T17:40:54.594Z,3.87
2017-12-10T17:43:22.229Z,4.05
2017-12-10T17:45:49.735Z,3.99
2017-12-10T17:48:17.218Z,4.04
2017-12-10T17:50:44.680Z,4.11
2017-12-10T17:53:12.163Z,4.12
2017-12-10T17:55:39.675Z,4.19
2017-12-10T17:58:07.170Z,4.20
2017-12-10T18:00:34.638Z,4.35
2017-12-10T18:03:02.099Z,4.30
2017-12-10T18:05:29.570Z,4.36
2017-12-10T18:07:57.008Z,4.35
2017-12-10T18:10:24.494Z,4.29
2017-12-10T18:12:52.368Z,4.25
2017-12-10T18:15:19.861Z,4.28
2017-12-10T18:17:47.336Z,4.47
2017-12-10T18:20:15.133Z,4.30
2017-12-10T18:22:42.673Z,4.22
2017-12-10T18:25:10.148Z,4.12
2017-12-10T18:27:37.749Z,3.98
2017-12-10T18:30:05.232Z,4.03
2017-12-10T18:32:32.731Z,3.99
2017-12-10T18:35:00.243Z,3.91
2017-12-10T18:37:27.736Z,3.84
2017-12-10T18:39:55.232Z,3.81
2017-12-10T18:42:22.881Z,3.80
2017-12-10T18:44:50.498Z,3.80
2017-12-10T18:47:18.044Z,3.74
2017-12-10T18:49:45.523Z,3.61
2017-12-10T18:52:13.002Z,3.51
2017-12-10T18:54:40.519Z,3.54
2017-12-10T18:57:08.047Z,3.45
2017-12-10T18:59:35.512Z,3.37
2017-12-10T19:02:03.123Z,3.48
2017-12-10T19:04:30.639Z,3.41
2017-12-10T19:06:58.096Z,3.31
2017-12-10T19:09:25.655Z,3.27
2017-12-10T19:11:53.210Z,3.18
2017-12-10T19:14:21.595Z,3.16
2017-12-10T19:16:49.077Z,3.16
2017-12-10T19:19:17.060Z,3.13
2017-12-10T19:21:44.547Z,3.03
2017-12-10T19:24:12.103Z,3.11
2017-12-10T19:26:39.603Z,3.19
2017-12-10T19:29:08.328Z,3.13
2017-12-10T19:31:35.905Z,3.12
2017-12-10T19:34:03.605Z,3.27
2017-12-10T19:36:31.844Z,3.28
2017-12-10T19:38:59.303Z,3.19
2017-12-10T19:41:26.835Z,3.11
2017-12-10T19:43:54.390Z,3.07
2017-12-10T19:46:21.840Z,3.06
2017-12-10T19:48:49.320Z,2.98
2017-12-10T19:51:16.941Z,3.07
2017-12-10T19:53:44.632Z,3.11
2017-12-10T19:56:12.574Z,3.15
2017-12-10T19:58:40.286Z,3.13
2017-12-10T20:01:07.926Z,3.20
2017-12-10T20:03:35.526Z,3.29
2017-12-10T20:06:03.110Z,3.24
2017-12-10T20:08:30.935Z,3.26
2017-12-10T20:10:58.432Z,3.33
2017-12-10T20:13:25.916Z,3.43
2017-12-10T20:15:53.510Z,3.39
2017-12-10T20:18:21.121Z,3.39
2017-12-10T20:20:48.652Z,3.41
2017-12-10T20:23:16.183Z,3.60
2017-12-10T20:25:43.706Z,3.55
2017-12-10T20:28:11.261Z,3.43
2017-12-10T20:30:38.722Z,3.56
2017-12-10T20:33:06.200Z,3.50
2017-12-10T20:35:33.778Z,3.46
2017-12-10T20:38:01.312Z,3.64
2017-12-10T20:40:28.858Z,3.65
2017-12-10T20:42:56.323Z,3.86
2017-12-10T20:45:23.822Z,3.90
2017-12-10T20:47:51.383Z,4.28
2017-12-10T20:50:18.890Z,4.33
2017-12-10T20:52:46.721Z,4.34
2017-12-10T20:55:14.184Z,4.50
2017-12-10T20:57:41.671Z,4.50
2017-12-10T21:00:09.179Z,4.57
2017-12-10T21:02:36.632Z,4.62
2017-12-10T21:05:04.150Z,4.72
2017-12-10T21:07:31.659Z,4.83
2017-12-10T21:09:59.130Z,4.92
2017-12-10T21:12:26.831Z,4.95
2017-12-10T21:14:54.298Z,5.01
2017-12-10T21:17:21.815Z,5.07
2017-12-10T21:19:49.351Z,5.03
2017-12-10T21:22:16.827Z,4.96
2017-12-10T21:24:44.585Z,4.93
2017-12-10T21:27:12.069Z,5.06
2017-12-10T21:29:39.548Z,5.05
2017-12-10T21:32:07.016Z,5.04
2017-12-10T21:34:34.569Z,5.04
2017-12-10T21:37:02.024Z,5.00
2017-12-10T21:39:29.496Z,4.88
2017-12-10T21:41:56.969Z,4.89
2017-12-10T21:44:24.467Z,4.84
2017-12-10T21:46:51.930Z,4.82
2017-12-10T21:49:19.393Z,4.84
2017-12-10T21:51:46.884Z,4.92
2017-12-10T21:54:14.345Z,4.89
2017-12-10T21:56:41.806Z,4.90
2017-12-10T21:59:09.275Z,4.90
2017-12-10T22:01:36.732Z,4.76
2017-12-10T22:04:04.208Z,4.72
2017-12-10T22:06:31.723Z,4.70
2017-12-10T22:08:59.198Z,4.71
2017-12-10T22:11:26.653Z,4.59
2017-12-10T22:13:54.123Z,4.44
2017-12-10T22:16:21.586Z,4.55
2017-12-10T22:18:49.408Z,4.51
2017-12-10T22:21:16.871Z,4.24
2017-12-10T22:23:44.339Z,4.05
2017-12-10T22:26:11.820Z,3.84
2017-12-10T22:28:39.327Z,3.71
2017-12-10T22:31:06.811Z,3.62
2017-12-10T22:33:34.351Z,3.68
2017-12-10T22:36:01.822Z,3.72
2017-12-10T22:38:29.554Z,3.59
2017-12-10T22:40:56.997Z,3.50
2017-12-10T22:43:24.472Z,3.45
2017-12-10T22:45:51.932Z,3.40
2017-12-10T22:48:19.388Z,3.40
2017-12-10T22:50:46.892Z,3.42
2017-12-10T22:53:14.353Z,3.40
2017-12-10T22:55:41.794Z,3.42
2017-12-10T22:58:09.250Z,3.81
2017-12-10T23:00:36.792Z,3.84
2017-12-10T23:03:04.375Z,3.82
2017-12-10T23:05:31.827Z,3.85
2017-12-10T23:07:59.255Z,3.75
2017-12-10T23:10:26.694Z,3.78
2017-12-10T23:12:54.373Z,3.82
2017-12-10T23:15:21.892Z,3.83
2017-12-10T23:17:49.348Z,3.81
2017-12-10T23:20:25.404Z,3.83
2017-12-10T23:22:52.867Z,3.71
2017-12-10T23:25:20.310Z,3.72
2017-12-10T23:27:47.770Z,3.78
2017-12-10T23:30:15.325Z,3.76
2017-12-10T23:32:42.792Z,3.83
2017-12-10T23:35:10.251Z,3.94
2017-12-10T23:37:37.767Z,3.87
2017-12-10T23:40:05.254Z,3.88
2017-12-10T23:42:33.291Z,3.91
2017-12-10T23:45:00.752Z,3.97
2017-12-10T23:47:28.208Z,3.94
2017-12-10T23:49:56.583Z,4.04
2017-12-10T23:52:24.196Z,4.17
2017-12-10T23:54:51.641Z,4.23
2017-12-10T23:57:19.089Z,4.28
2017-12-10T23:59:46.551Z,4.31
